Time;durP1;ratioP1;P1;durP2;ratioP2;P2;SDS_P1;SDS_P2;PMS_P1;PMS_P2;Temp;Humidity;BMP_temperature;BMP_pressure;BME280_temperature;BME280_humidity;BME280_pressure;Samples;Min_cycle;Max_cycle;Signal;HPM_P1;HPM_P2
2023/03/08 00:01:02;;;;;;;4.72;2.90;;;11.40;96.70;;;;;;5058534;28;20128;-75
2023/03/08 00:03:29;;;;;;;5.00;2.88;;;11.40;96.70;;;;;;5045706;28;20049;-74
2023/03/08 00:06:03;;;;;;;3.72;2.70;;;11.40;96.70;;;;;;5056723;28;20041;-75
2023/03/08 00:08:31;;;;;;;5.15;2.78;;;11.30;96.70;;;;;;5052588;28;20154;-74
2023/03/08 00:10:59;;;;;;;6.03;3.65;;;11.30;96.70;;;;;;5057727;28;20068;-74
2023/03/08 00:13:27;;;;;;;3.95;2.65;;;11.30;96.70;;;;;;5052143;28;20056;-74
2023/03/08 00:15:59;;;;;;;4.85;3.30;;;11.30;96.70;;;;;;5063881;28;20044;-74
2023/03/08 00:18:27;;;;;;;3.97;2.88;;;11.30;96.70;;;;;;5058640;28;20048;-75
2023/03/08 00:21:01;;;;;;;7.57;3.03;;;11.30;96.70;;;;;;5046522;28;20485;-74
2023/03/08 00:23:29;;;;;;;6.20;3.15;;;11.20;96.70;;;;;;5050108;28;20547;-75
2023/03/08 00:25:57;;;;;;;4.32;3.28;;;11.20;96.70;;;;;;5060511;28;20110;-74
2023/03/08 00:28:26;;;;;;;4.20;2.85;;;11.10;96.70;;;;;;5061463;28;20438;-74
2023/03/08 00:30:58;;;;;;;6.40;3.40;;;11.10;96.70;;;;;;5060069;28;20061;-74
2023/03/08 00:33:27;;;;;;;5.68;3.05;;;11.20;96.70;;;;;;5057888;28;20155;-74
2023/03/08 00:35:57;;;;;;;6.05;3.00;;;11.10;96.70;;;;;;5040023;28;20040;-74
2023/03/08 00:38:27;;;;;;;4.68;3.00;;;11.10;96.70;;;;;;5044399;28;20413;-74
2023/03/08 00:40:55;;;;;;;6.18;3.35;;;11.10;96.70;;;;;;5064238;28;20048;-74
2023/03/08 00:43:24;;;;;;;6.03;3.40;;;11.10;96.70;;;;;;5059123;28;20562;-74
2023/03/08 00:45:52;;;;;;;4.18;3.17;;;11.10;96.70;;;;;;5057064;28;20134;-74
2023/03/08 00:48:21;;;;;;;6.63;3.42;;;11.20;96.70;;;;;;5047899;28;20449;-74
2023/03/08 00:50:51;;;;;;;4.03;2.92;;;11.10;96.70;;;;;;5055432;28;20052;-74
2023/03/08 00:53:20;;;;;;;4.53;3.20;;;11.10;96.70;;;;;;5059130;28;20040;-75
2023/03/08 00:55:51;;;;;;;6.32;3.83;;;11.20;96.70;;;;;;5063266;28;20108;-74
2023/03/08 00:58:20;;;;;;;5.28;3.70;;;11.10;96.70;;;;;;5055379;28;20045;-74
2023/03/08 01:00:49;;;;;;;4.63;3.17;;;11.00;96.70;;;;;;5060425;28;20126;-74
2023/03/08 01:03:18;;;;;;;3.92;2.97;;;11.00;96.70;;;;;;5054978;28;20110;-74
2023/03/08 01:05:49;;;;;;;4.45;2.83;;;10.90;96.70;;;;;;5061254;28;20053;-74
2023/03/08 01:08:18;;;;;;;5.30;3.00;;;10.90;96.70;;;;;;5039614;28;20584;-74
2023/03/08 01:10:47;;;;;;;6.68;3.30;;;10.90;96.70;;;;;;5051871;28;20064;-75
2023/03/08 01:13:18;;;;;;;4.53;2.88;;;10.90;96.70;;;;;;5055237;28;20126;-75
2023/03/08 01:15:46;;;;;;;3.20;2.63;;;10.90;96.70;;;;;;5057141;28;20070;-75
2023/03/08 01:18:15;;;;;;;6.20;3.08;;;10.80;96.70;;;;;;5037821;28;20556;-72
2023/03/08 01:20:43;;;;;;;6.60;3.10;;;10.90;96.70;;;;;;5039087;28;20147;-74
2023/03/08 01:23:13;;;;;;;4.30;2.80;;;10.80;96.70;;;;;;5054424;28;20086;-73
2023/03/08 01:25:43;;;;;;;4.25;2.63;;;10.80;96.70;;;;;;5041795;28;20071;-74
2023/03/08 01:28:12;;;;;;;2.58;2.20;;;10.80;96.70;;;;;;5056729;28;20048;-74
2023/03/08 01:30:42;;;;;;;4.13;2.67;;;10.90;96.70;;;;;;5055935;28;20044;-74
2023/03/08 01:33:10;;;;;;;3.70;2.83;;;10.90;96.70;;;;;;5059245;28;20072;-74
2023/03/08 01:35:38;;;;;;;4.13;2.60;;;10.90;96.70;;;;;;5061656;28;20048;-74
2023/03/08 01:38:07;;;;;;;3.50;2.90;;;10.90;96.70;;;;;;5059244;28;20726;-74
2023/03/08 01:40:35;;;;;;;5.82;3.00;;;10.90;96.70;;;;;;5057407;28;20037;-74
2023/03/08 01:43:25;;;;;;;4.88;3.60;;;10.90;96.70;;;;;;5052739;28;20110;-73
2023/03/08 01:46:13;;;;;;;4.43;3.20;;;10.90;96.70;;;;;;4997470;28;20156;-74
2023/03/08 01:48:47;;;;;;;6.70;4.15;;;10.90;96.70;;;;;;5002292;28;20728;-74
2023/03/08 01:51:21;;;;;;;5.03;3.28;;;11.00;96.70;;;;;;4985814;28;20046;-74
2023/03/08 01:53:49;;;;;;;6.03;3.67;;;11.00;96.70;;;;;;4998600;28;20488;-74
2023/03/08 01:56:19;;;;;;;6.78;5.03;;;10.90;96.70;;;;;;4987389;28;20919;-74
2023/03/08 01:58:50;;;;;;;5.45;3.88;;;10.90;96.70;;;;;;4999348;28;20050;-74
2023/03/08 02:01:20;;;;;;;5.72;4.05;;;10.90;96.70;;;;;;4997780;28;20046;-73
2023/03/08 02:03:51;;;;;;;5.35;3.60;;;10.90;96.70;;;;;;4986574;28;20470;-74
2023/03/08 02:06:22;;;;;;;5.00;3.20;;;10.90;96.70;;;;;;4998984;28;20073;-74
2023/03/08 02:08:50;;;;;;;6.70;3.55;;;11.00;96.70;;;;;;4999703;28;20041;-74
2023/03/08 02:11:19;;;;;;;5.55;3.65;;;10.90;96.70;;;;;;4984161;28;20104;-74
2023/03/08 02:13:50;;;;;;;4.75;3.60;;;11.00;96.70;;;;;;4998443;28;20145;-74
2023/03/08 02:16:21;;;;;;;5.50;3.70;;;11.00;96.70;;;;;;5006437;28;20098;-75
2023/03/08 02:18:51;;;;;;;6.65;4.03;;;11.00;96.70;;;;;;5057735;28;20032;-74
2023/03/08 02:21:21;;;;;;;4.32;3.58;;;11.00;96.70;;;;;;5057462;28;20398;-74
2023/03/08 02:23:51;;;;;;;3.60;2.97;;;11.00;96.70;;;;;;5060363;28;20417;-75
2023/03/08 02:26:19;;;;;;;4.97;3.13;;;10.90;96.70;;;;;;5042038;28;20132;-74
2023/03/08 02:28:47;;;;;;;5.85;3.38;;;10.90;96.70;;;;;;5064268;28;20153;-75
2023/03/08 02:31:15;;;;;;;4.38;3.17;;;10.90;96.70;;;;;;5052710;28;20073;-74
2023/03/08 02:33:44;;;;;;;7.05;3.75;;;10.90;96.70;;;;;;5055601;28;20047;-74
2023/03/08 02:36:12;;;;;;;4.18;3.20;;;11.00;96.70;;;;;;5071566;28;20055;-75
2023/03/08 02:38:40;;;;;;;6.47;3.33;;;10.90;96.70;;;;;;5058482;28;20040;-74
2023/03/08 02:41:09;;;;;;;5.25;3.38;;;10.80;96.70;;;;;;5064092;28;20032;-74
2023/03/08 02:43:37;;;;;;;3.95;2.88;;;10.90;96.70;;;;;;5043033;28;20049;-73
2023/03/08 02:46:05;;;;;;;4.00;2.85;;;10.90;96.70;;;;;;5060090;28;20053;-74
2023/03/08 02:48:33;;;;;;;4.93;3.53;;;10.90;96.70;;;;;;5058638;28;20515;-73
2023/03/08 02:51:01;;;;;;;4.22;3.03;;;10.90;96.70;;;;;;5040204;28;20039;-73
2023/03/08 02:53:29;;;;;;;4.57;3.33;;;10.90;96.70;;;;;;5054790;28;20055;-74
2023/03/08 02:55:59;;;;;;;5.72;4.65;;;10.90;96.70;;;;;;5048965;28;20044;-74
2023/03/08 02:58:28;;;;;;;4.82;3.47;;;10.90;96.70;;;;;;5061500;28;20047;-76
2023/03/08 03:00:56;;;;;;;5.68;3.97;;;10.80;96.70;;;;;;5058137;28;20073;-74
2023/03/08 03:03:24;;;;;;;5.60;4.55;;;10.80;96.70;;;;;;5054172;28;20087;-73
2023/03/08 03:05:52;;;;;;;7.00;3.88;;;10.80;96.70;;;;;;5057620;28;20035;-77
2023/03/08 03:08:29;;;;;;;4.60;3.28;;;10.80;96.70;;;;;;5055275;28;20048;-74
2023/03/08 03:10:57;;;;;;;5.13;3.65;;;10.90;96.70;;;;;;5060269;28;20770;-74
2023/03/08 03:13:26;;;;;;;6.82;3.92;;;10.90;96.70;;;;;;5058798;28;20140;-74
2023/03/08 03:15:55;;;;;;;4.05;3.22;;;10.90;96.70;;;;;;5054638;28;20121;-74
2023/03/08 03:18:23;;;;;;;6.50;3.60;;;10.90;96.70;;;;;;5058675;28;20131;-73
2023/03/08 03:20:51;;;;;;;5.93;3.58;;;10.90;96.70;;;;;;5054420;28;20059;-74
2023/03/08 03:23:19;;;;;;;5.82;3.53;;;11.00;96.70;;;;;;5059658;28;20041;-74
2023/03/08 03:25:52;;;;;;;4.68;3.58;;;11.00;96.70;;;;;;5055607;28;20045;-74
2023/03/08 03:28:20;;;;;;;3.92;3.50;;;10.90;96.70;;;;;;5060898;28;20490;-73
2023/03/08 03:30:51;;;;;;;4.45;3.47;;;11.00;96.70;;;;;;5043046;28;20033;-74
2023/03/08 03:33:19;;;;;;;4.47;3.30;;;10.90;96.70;;;;;;5044369;28;20048;-74
2023/03/08 03:35:47;;;;;;;4.75;3.72;;;10.90;96.70;;;;;;5045124;28;20048;-73
2023/03/08 03:38:17;;;;;;;4.28;3.50;;;10.90;96.70;;;;;;5058979;28;20493;-74
2023/03/08 03:40:45;;;;;;;7.40;3.97;;;10.90;96.70;;;;;;5049996;28;20495;-74
2023/03/08 03:43:14;;;;;;;6.10;3.58;;;11.00;96.70;;;;;;5059362;28;20033;-73
2023/03/08 03:45:43;;;;;;;4.50;3.60;;;11.00;96.70;;;;;;5057033;28;20444;-74
2023/03/08 03:48:14;;;;;;;5.93;4.15;;;11.00;96.70;;;;;;5058997;28;20045;-75
2023/03/08 03:50:42;;;;;;;4.40;3.50;;;11.00;96.70;;;;;;5043725;28;20073;-73
2023/03/08 03:53:13;;;;;;;4.97;3.67;;;11.00;96.70;;;;;;5056952;28;20040;-74
2023/03/08 03:55:41;;;;;;;7.13;4.03;;;10.90;96.70;;;;;;5062110;28;20128;-73
2023/03/08 03:58:09;;;;;;;5.25;3.83;;;11.00;96.70;;;;;;5051999;28;20088;-74
2023/03/08 04:00:37;;;;;;;6.40;3.95;;;11.00;96.70;;;;;;5053323;28;20033;-73
2023/03/08 04:03:17;;;;;;;6.30;4.25;;;11.00;96.70;;;;;;5056920;28;20056;-74
2023/03/08 04:05:46;;;;;;;5.03;3.65;;;10.90;96.70;;;;;;5053135;28;20530;-73
2023/03/08 04:08:15;;;;;;;5.25;4.05;;;10.90;96.70;;;;;;5039790;28;20069;-74
2023/03/08 04:10:43;;;;;;;6.78;4.22;;;10.80;96.70;;;;;;5050696;28;20044;-74
2023/03/08 04:13:11;;;;;;;6.32;4.47;;;10.80;96.70;;;;;;5058211;28;20056;-74
2023/03/08 04:15:41;;;;;;;5.90;4.45;;;10.80;96.70;;;;;;5051400;28;20075;-74
2023/03/08 04:18:11;;;;;;;5.90;4.20;;;10.80;96.70;;;;;;5050659;28;20127;-73
2023/03/08 04:20:45;;;;;;;4.35;3.80;;;10.70;96.70;;;;;;5062911;28;20041;-73
2023/03/08 04:23:15;;;;;;;5.85;4.47;;;10.80;96.70;;;;;;5055768;28;20102;-74
2023/03/08 04:25:46;;;;;;;6.18;4.15;;;10.80;96.70;;;;;;5055676;28;20641;-73
2023/03/08 04:28:16;;;;;;;6.18;3.90;;;10.80;96.70;;;;;;5062174;28;20454;-74
2023/03/08 04:30:44;;;;;;;5.55;4.25;;;10.80;96.70;;;;;;5062733;28;20045;-73
2023/03/08 04:33:16;;;;;;;4.38;3.80;;;10.80;96.70;;;;;;5062691;28;20037;-73
2023/03/08 04:35:49;;;;;;;5.50;3.97;;;10.90;96.70;;;;;;5056435;28;20612;-74
2023/03/08 04:38:21;;;;;;;4.70;4.20;;;10.80;96.70;;;;;;5060885;28;20531;-73
2023/03/08 04:41:04;;;;;;;5.65;4.03;;;10.90;96.70;;;;;;5055874;28;20052;-73
2023/03/08 04:43:46;;;;;;;5.65;4.50;;;10.90;96.70;;;;;;5060429;28;20478;-74
2023/03/08 04:46:15;;;;;;;6.63;4.68;;;10.80;96.70;;;;;;5057304;28;20052;-74
2023/03/08 04:48:45;;;;;;;4.65;4.22;;;10.90;96.70;;;;;;5056312;28;20044;-74
2023/03/08 04:51:17;;;;;;;5.22;4.35;;;10.90;96.70;;;;;;5047429;28;20152;-73
2023/03/08 04:53:46;;;;;;;5.55;4.32;;;10.90;96.70;;;;;;5058970;28;20052;-74
2023/03/08 04:56:16;;;;;;;6.20;4.57;;;10.80;96.70;;;;;;5045118;28;20045;-73
2023/03/08 04:58:46;;;;;;;5.80;5.07;;;10.80;96.70;;;;;;5058985;28;20041;-73
2023/03/08 05:01:18;;;;;;;5.85;4.53;;;10.80;96.70;;;;;;5062212;28;20506;-73
2023/03/08 05:03:50;;;;;;;5.68;4.57;;;10.70;96.70;;;;;;5058899;28;20060;-74
2023/03/08 05:06:26;;;;;;;5.35;4.13;;;10.70;96.70;;;;;;5061245;28;20040;-73
2023/03/08 05:08:55;;;;;;;5.53;3.85;;;10.70;96.70;;;;;;5056804;28;20052;-74
2023/03/08 05:11:26;;;;;;;5.18;4.03;;;10.80;96.70;;;;;;5059965;28;20038;-73
2023/03/08 05:13:56;;;;;;;5.72;4.32;;;10.70;96.70;;;;;;5054080;28;20604;-74
2023/03/08 05:16:27;;;;;;;5.05;3.83;;;10.70;96.70;;;;;;5052647;28;20052;-73
2023/03/08 05:18:56;;;;;;;5.70;4.10;;;10.70;96.70;;;;;;5052983;28;20131;-73
2023/03/08 05:21:30;;;;;;;4.25;3.42;;;10.70;96.70;;;;;;5059126;28;20040;-73
2023/03/08 05:24:01;;;;;;;5.75;3.65;;;10.70;96.70;;;;;;5057795;28;20049;-73
2023/03/08 05:26:32;;;;;;;4.05;3.13;;;10.60;96.70;;;;;;5057057;28;20041;-73
2023/03/08 05:29:02;;;;;;;5.30;3.60;;;10.60;96.70;;;;;;5043460;28;20040;-74
2023/03/08 05:31:32;;;;;;;6.13;3.50;;;10.70;96.70;;;;;;5041200;28;20791;-74
2023/03/08 05:34:03;;;;;;;4.45;3.30;;;10.70;96.70;;;;;;5037722;28;20064;-73
2023/03/08 05:36:38;;;;;;;5.15;3.35;;;10.70;96.70;;;;;;5058336;28;20491;-73
2023/03/08 05:39:07;;;;;;;5.28;3.25;;;10.70;96.70;;;;;;5051821;28;20065;-73
2023/03/08 05:41:42;;;;;;;4.05;3.33;;;10.80;96.70;;;;;;5053491;28;20041;-73
2023/03/08 05:44:13;;;;;;;4.60;3.25;;;10.80;96.70;;;;;;5063438;28;20097;-73
2023/03/08 05:46:42;;;;;;;5.13;3.80;;;10.80;96.70;;;;;;5054193;28;20515;-73
2023/03/08 05:49:11;;;;;;;4.03;3.40;;;10.80;96.70;;;;;;5041277;28;20126;-73
2023/03/08 05:51:42;;;;;;;4.47;3.58;;;10.80;96.70;;;;;;5063826;28;20066;-74
2023/03/08 05:54:11;;;;;;;5.40;3.72;;;10.90;96.70;;;;;;5054917;28;20131;-73
2023/03/08 05:56:41;;;;;;;4.82;3.47;;;10.80;96.70;;;;;;5055209;28;20088;-74
2023/03/08 05:59:19;;;;;;;5.88;3.78;;;10.80;96.70;;;;;;5063331;28;20053;-73
2023/03/08 06:01:48;;;;;;;4.47;3.70;;;10.90;96.70;;;;;;5043140;28;20047;-74
2023/03/08 06:04:36;;;;;;;4.70;3.55;;;10.90;96.70;;;;;;5050744;28;20092;-73
2023/03/08 06:07:06;;;;;;;4.97;3.55;;;10.90;96.70;;;;;;5056675;28;20521;-74
2023/03/08 06:09:38;;;;;;;4.60;3.22;;;10.80;96.70;;;;;;5058428;28;20554;-74
2023/03/08 06:12:12;;;;;;;7.72;5.00;;;10.80;96.70;;;;;;5057129;28;20064;-74
2023/03/08 06:14:40;;;;;;;8.77;5.80;;;10.80;96.70;;;;;;5058079;28;20057;-73
2023/03/08 06:17:08;;;;;;;9.35;8.32;;;10.80;96.70;;;;;;5039378;28;20047;-74
2023/03/08 06:19:41;;;;;;;8.18;6.85;;;10.80;96.70;;;;;;5043140;28;20621;-74
2023/03/08 06:22:15;;;;;;;9.65;7.82;;;10.80;96.70;;;;;;5055719;28;20045;-74
2023/03/08 06:24:48;;;;;;;8.55;7.47;;;10.80;96.70;;;;;;5064906;28;20040;-74
2023/03/08 06:27:23;;;;;;;9.80;7.18;;;10.70;96.70;;;;;;5056698;28;20506;-74
2023/03/08 06:29:54;;;;;;;8.15;6.57;;;10.80;96.70;;;;;;5057663;28;20131;-73
2023/03/08 06:32:23;;;;;;;8.48;7.00;;;10.90;96.70;;;;;;5047158;28;20090;-74
2023/03/08 06:34:51;;;;;;;7.40;5.90;;;10.90;96.70;;;;;;5061004;28;20127;-73
2023/03/08 06:37:21;;;;;;;6.78;5.82;;;10.90;96.70;;;;;;5059205;28;20062;-73
2023/03/08 06:39:49;;;;;;;6.47;5.65;;;11.00;96.70;;;;;;5074759;28;20509;-74
2023/03/08 06:42:17;;;;;;;7.80;6.47;;;10.90;96.70;;;;;;5044178;28;20045;-74
2023/03/08 06:44:52;;;;;;;7.80;6.07;;;11.00;96.70;;;;;;5063372;28;20080;-74
2023/03/08 06:47:20;;;;;;;11.07;6.50;;;11.10;96.70;;;;;;5069337;28;20119;-74
2023/03/08 06:49:48;;;;;;;8.07;5.85;;;11.10;96.70;;;;;;5081668;28;20058;-74
2023/03/08 06:52:16;;;;;;;6.70;5.03;;;11.10;96.70;;;;;;5067609;28;20062;-75
2023/03/08 06:54:48;;;;;;;7.03;4.47;;;11.10;96.70;;;;;;5077371;28;20063;-75
2023/03/08 06:57:17;;;;;;;7.15;3.97;;;11.10;96.70;;;;;;5078013;28;20143;-75
2023/03/08 06:59:45;;;;;;;5.35;3.83;;;11.10;96.70;;;;;;5058390;28;20047;-74
2023/03/08 07:02:13;;;;;;;6.07;3.97;;;11.10;96.70;;;;;;5068429;28;20068;-75
2023/03/08 07:04:41;;;;;;;7.05;3.85;;;11.20;96.70;;;;;;5052649;28;20071;-75
2023/03/08 07:07:09;;;;;;;4.13;3.67;;;11.10;96.70;;;;;;5073029;28;20048;-75
2023/03/08 07:09:37;;;;;;;5.68;4.32;;;11.20;96.70;;;;;;5072842;28;20139;-76
2023/03/08 07:12:07;;;;;;;6.25;4.28;;;11.20;96.70;;;;;;5070596;28;20812;-76
2023/03/08 07:14:36;;;;;;;4.05;3.65;;;11.20;96.70;;;;;;5063928;28;20113;-73
2023/03/08 07:17:04;;;;;;;5.53;4.32;;;11.20;96.70;;;;;;5067584;28;20059;-75
2023/03/08 07:19:42;;;;;;;5.03;3.60;;;11.30;96.70;;;;;;5073032;28;20927;-76
2023/03/08 07:22:11;;;;;;;5.70;4.22;;;11.40;96.70;;;;;;5073655;28;20052;-75
2023/03/08 07:24:39;;;;;;;4.50;3.85;;;11.40;96.70;;;;;;5080476;28;20036;-76
2023/03/08 07:27:09;;;;;;;6.47;4.03;;;11.40;96.70;;;;;;5062887;28;20044;-76
2023/03/08 07:29:37;;;;;;;7.00;3.75;;;11.40;96.70;;;;;;5067560;28;20050;-75
2023/03/08 07:32:06;;;;;;;4.10;3.63;;;11.40;96.70;;;;;;5075182;28;20048;-76
2023/03/08 07:34:34;;;;;;;5.70;3.97;;;11.40;96.70;;;;;;5068690;28;20075;-76
2023/03/08 07:37:04;;;;;;;4.25;3.20;;;11.40;96.70;;;;;;5070202;28;21032;-75
2023/03/08 07:39:32;;;;;;;5.85;3.53;;;11.50;96.70;;;;;;5063572;28;20090;-76
2023/03/08 07:42:00;;;;;;;4.45;3.47;;;11.40;96.70;;;;;;5069475;28;20062;-77
2023/03/08 07:44:29;;;;;;;4.43;3.88;;;11.50;96.70;;;;;;5066219;28;20050;-77
2023/03/08 07:46:57;;;;;;;6.88;3.92;;;11.60;96.70;;;;;;5078222;28;20047;-77
2023/03/08 07:49:25;;;;;;;5.65;3.92;;;11.60;96.70;;;;;;5079375;28;20032;-77
2023/03/08 07:51:53;;;;;;;5.70;3.95;;;11.60;96.70;;;;;;5073516;28;20036;-77
2023/03/08 07:54:22;;;;;;;5.30;3.78;;;11.70;96.70;;;;;;5058389;28;20041;-77
2023/03/08 07:56:51;;;;;;;4.03;3.53;;;11.80;96.70;;;;;;5068811;28;20134;-77
2023/03/08 07:59:19;;;;;;;6.43;4.07;;;11.90;96.70;;;;;;5059760;28;20070;-77
2023/03/08 08:01:49;;;;;;;4.75;3.63;;;11.90;96.70;;;;;;5080181;28;20036;-77
2023/03/08 08:04:17;;;;;;;5.38;3.55;;;11.80;96.70;;;;;;5069082;28;20723;-78
2023/03/08 08:06:45;;;;;;;5.25;3.72;;;11.90;96.70;;;;;;5076326;28;20487;-79
2023/03/08 08:09:14;;;;;;;4.90;3.88;;;12.00;96.70;;;;;;5066525;28;20049;-75
2023/03/08 08:11:42;;;;;;;4.80;3.42;;;12.10;96.70;;;;;;5074026;28;20134;-76
2023/03/08 08:14:10;;;;;;;4.88;3.03;;;12.10;96.70;;;;;;5080056;28;20142;-77
2023/03/08 08:16:38;;;;;;;6.50;4.07;;;12.20;96.70;;;;;;5076607;28;20047;-77
2023/03/08 08:19:10;;;;;;;5.82;4.30;;;12.30;96.70;;;;;;5084314;28;20044;-76
2023/03/08 08:21:38;;;;;;;6.78;3.75;;;12.30;96.70;;;;;;5068124;28;20101;-77
2023/03/08 08:24:07;;;;;;;5.22;4.15;;;12.40;96.70;;;;;;5060247;28;20048;-78
2023/03/08 08:26:35;;;;;;;6.75;4.13;;;12.50;96.70;;;;;;5085978;28;20048;-78
2023/03/08 08:29:04;;;;;;;6.97;3.85;;;12.60;96.70;;;;;;5075158;28;20516;-78
2023/03/08 08:31:32;;;;;;;7.45;5.00;;;12.70;96.70;;;;;;5074363;28;20370;-76
2023/03/08 08:34:01;;;;;;;6.15;4.55;;;12.70;96.70;;;;;;5085531;28;20106;-76
2023/03/08 08:36:30;;;;;;;6.75;4.10;;;12.70;96.70;;;;;;5068319;28;20567;-76
2023/03/08 08:38:58;;;;;;;5.25;3.90;;;12.80;96.70;;;;;;5079452;28;20523;-77
2023/03/08 08:41:28;;;;;;;5.10;4.07;;;12.90;96.70;;;;;;5084097;28;20059;-77
2023/03/08 08:43:58;;;;;;;6.88;4.07;;;13.00;96.70;;;;;;5084499;28;20047;-79
2023/03/08 08:46:27;;;;;;;6.13;4.30;;;13.00;96.70;;;;;;5083263;28;20401;-77
2023/03/08 08:48:57;;;;;;;5.10;4.38;;;13.10;96.70;;;;;;5083168;28;20044;-75
2023/03/08 08:51:25;;;;;;;6.10;4.13;;;13.20;96.70;;;;;;5075271;28;20125;-76
2023/03/08 08:53:55;;;;;;;7.53;4.60;;;13.40;96.70;;;;;;5079294;28;20663;-76
2023/03/08 08:56:25;;;;;;;6.05;4.25;;;13.40;96.70;;;;;;5076233;28;20873;-77
2023/03/08 08:59:00;;;;;;;6.82;4.38;;;13.50;96.70;;;;;;5077209;28;20050;-75
2023/03/08 09:01:31;;;;;;;7.70;4.28;;;13.70;96.70;;;;;;5080199;28;20052;-76
2023/03/08 09:03:59;;;;;;;6.38;4.03;;;13.80;96.70;;;;;;5083207;28;20044;-76
2023/03/08 09:06:29;;;;;;;11.52;5.00;;;13.90;96.70;;;;;;5080492;28;20067;-75
2023/03/08 09:08:59;;;;;;;11.52;4.82;;;14.00;96.70;;;;;;5066688;28;20071;-75
2023/03/08 09:11:28;;;;;;;10.43;4.78;;;13.90;96.70;;;;;;5070486;28;20067;-76
2023/03/08 09:13:56;;;;;;;8.00;4.15;;;13.90;96.70;;;;;;5084290;28;20068;-76
2023/03/08 09:16:25;;;;;;;13.00;4.97;;;14.10;96.70;;;;;;5083396;28;20044;-76
2023/03/08 09:18:57;;;;;;;10.05;5.10;;;14.30;96.70;;;;;;5074232;28;20135;-75
2023/03/08 09:21:27;;;;;;;10.48;5.80;;;14.20;96.70;;;;;;5066700;28;20153;-76
2023/03/08 09:23:55;;;;;;;9.27;4.78;;;14.20;96.70;;;;;;5078683;28;20033;-75
2023/03/08 09:26:25;;;;;;;9.45;5.43;;;14.20;96.70;;;;;;5077170;28;21319;-75
2023/03/08 09:28:52;;;;;;;7.75;4.63;;;14.20;96.70;;;;;;5083140;28;20032;-75
2023/03/08 09:31:22;;;;;;;13.20;5.40;;;14.40;96.70;;;;;;5084708;28;20043;-75
2023/03/08 09:33:51;;;;;;;8.57;5.05;;;14.50;96.70;;;;;;5077743;28;20718;-76
2023/03/08 09:36:19;;;;;;;10.98;5.20;;;14.60;96.70;;;;;;5067443;28;20052;-76
2023/03/08 09:38:49;;;;;;;9.25;4.68;;;14.60;96.70;;;;;;5058580;28;20129;-76
2023/03/08 09:41:39;;;;;;;9.40;5.03;;;14.60;96.70;;;;;;5080480;28;20588;-76
2023/03/08 09:44:33;;;;;;;7.45;4.00;;;14.60;96.70;;;;;;5076466;28;20044;-76
2023/03/08 09:47:12;;;;;;;8.55;4.40;;;14.60;96.70;;;;;;5055627;28;20052;-76
2023/03/08 09:49:41;;;;;;;6.60;3.65;;;14.50;96.70;;;;;;5060321;28;20161;-76
2023/03/08 09:52:15;;;;;;;8.70;3.72;;;14.50;96.70;;;;;;5065646;28;20036;-76
2023/03/08 09:54:45;;;;;;;7.55;3.50;;;14.40;96.70;;;;;;5058091;28;20159;-76
2023/03/08 09:57:20;;;;;;;8.48;3.70;;;14.60;96.70;;;;;;5081830;28;20052;-76
2023/03/08 09:59:52;;;;;;;9.15;4.00;;;14.60;96.70;;;;;;5080175;28;20044;-75
2023/03/08 10:02:30;;;;;;;18.02;9.32;;;14.60;96.70;;;;;;5095497;28;20461;-77
2023/03/08 10:05:04;;;;;;;7.30;5.10;;;14.60;96.70;;;;;;5074392;28;20047;-76
2023/03/08 10:07:51;;;;;;;11.02;4.13;;;14.70;96.70;;;;;;5069048;28;20044;-76
2023/03/08 10:10:39;;;;;;;8.40;3.90;;;14.80;96.70;;;;;;5073322;28;20048;-76
2023/03/08 10:13:26;;;;;;;7.72;3.60;;;14.80;96.70;;;;;;5056546;28;20837;-77
2023/03/08 10:16:01;;;;;;;9.07;2.50;;;15.00;96.70;;;;;;5062815;28;20541;-76
2023/03/08 10:18:35;;;;;;;10.25;3.78;;;15.20;96.70;;;;;;5079376;28;20501;-76
2023/03/08 10:21:03;;;;;;;14.82;4.25;;;15.40;96.70;;;;;;5065828;28;20051;-76
2023/03/08 10:23:32;;;;;;;7.88;3.05;;;15.60;96.70;;;;;;5078312;28;20395;-75
2023/03/08 10:26:04;;;;;;;10.30;3.55;;;15.50;96.70;;;;;;5073171;28;20047;-75
2023/03/08 10:28:34;;;;;;;11.13;4.63;;;15.30;96.70;;;;;;5072937;28;20055;-80
2023/03/08 10:31:14;;;;;;;7.85;3.08;;;15.40;96.70;;;;;;5064416;28;20427;-79
2023/03/08 10:33:42;;;;;;;9.77;3.30;;;15.60;96.70;;;;;;5059224;28;20044;-78
2023/03/08 10:36:17;;;;;;;10.65;2.92;;;15.80;96.70;;;;;;5072095;28;20051;-80
2023/03/08 10:38:56;;;;;;;9.30;2.80;;;15.80;96.70;;;;;;5075499;28;20043;-77
2023/03/08 10:41:27;;;;;;;10.88;3.17;;;15.80;96.70;;;;;;5083222;28;20477;-76
2023/03/08 10:43:56;;;;;;;12.90;3.22;;;15.90;96.70;;;;;;5065341;28;20052;-77
2023/03/08 10:46:27;;;;;;;8.70;2.30;;;15.90;96.70;;;;;;5076848;28;20121;-78
2023/03/08 10:49:07;;;;;;;11.88;3.22;;;15.80;96.70;;;;;;5080032;28;20036;-76
2023/03/08 10:51:36;;;;;;;10.00;3.20;;;15.80;96.70;;;;;;5064332;28;20524;-75
2023/03/08 10:54:06;;;;;;;7.88;2.63;;;15.80;96.70;;;;;;5072645;28;20048;-79
2023/03/08 10:56:39;;;;;;;8.50;2.25;;;15.70;96.70;;;;;;5080211;28;20059;-78
2023/03/08 10:59:18;;;;;;;7.82;2.10;;;15.50;96.70;;;;;;5073653;28;20072;-79
2023/03/08 11:01:51;;;;;;;6.03;2.30;;;15.40;96.70;;;;;;5072263;28;20097;-79
2023/03/08 11:04:21;;;;;;;7.45;2.33;;;15.50;96.70;;;;;;5078146;28;20537;-76
2023/03/08 11:07:10;;;;;;;8.32;2.60;;;15.60;96.70;;;;;;5076561;28;20788;-76
2023/03/08 11:09:38;;;;;;;5.72;2.78;;;15.80;96.70;;;;;;5070193;28;20457;-76
2023/03/08 11:12:21;;;;;;;9.60;2.85;;;15.90;96.70;;;;;;5066091;28;20402;-76
2023/03/08 11:14:51;;;;;;;8.68;2.75;;;16.00;96.70;;;;;;5075103;28;20060;-76
2023/03/08 11:17:27;;;;;;;9.02;2.58;;;16.10;96.70;;;;;;5061529;28;20546;-76
2023/03/08 11:20:09;;;;;;;7.53;2.35;;;16.20;96.70;;;;;;5069881;28;20044;-75
2023/03/08 11:22:50;;;;;;;5.93;1.67;;;16.40;96.70;;;;;;5077458;28;20048;-76
2023/03/08 11:25:32;;;;;;;7.30;2.47;;;16.40;96.70;;;;;;5069882;28;20044;-76
2023/03/08 11:28:14;;;;;;;9.55;3.25;;;16.40;96.70;;;;;;5063955;28;20405;-76
2023/03/08 11:30:56;;;;;;;9.93;2.90;;;16.50;96.70;;;;;;5080299;28;20052;-76
2023/03/08 11:33:43;;;;;;;7.22;2.75;;;16.70;96.70;;;;;;5068479;28;20044;-76
2023/03/08 11:36:13;;;;;;;;;;;16.70;96.70;;;;;;5064290;28;20516;-76
2023/03/08 11:38:46;;;;;;;10.63;3.30;;;16.70;96.70;;;;;;5072548;28;20464;-76
2023/03/08 11:41:24;;;;;;;8.38;2.53;;;16.70;96.70;;;;;;5053719;28;20052;-75
2023/03/08 11:44:15;;;;;;;8.48;2.25;;;16.80;96.70;;;;;;5073021;28;20040;-77
2023/03/08 11:46:56;;;;;;;7.00;2.13;;;16.70;96.70;;;;;;5080061;28;20113;-77
2023/03/08 11:49:45;;;;;;;7.55;2.72;;;16.90;96.70;;;;;;5071622;28;20121;-76
2023/03/08 11:52:21;;;;;;;6.68;1.80;;;16.80;96.70;;;;;;5068258;28;20064;-76
2023/03/08 11:55:00;;;;;;;8.52;2.10;;;16.70;96.70;;;;;;5059485;28;20048;-76
2023/03/08 11:57:34;;;;;;;7.55;1.83;;;16.80;96.70;;;;;;5059824;28;20098;-76
2023/03/08 12:00:12;;;;;;;8.30;1.95;;;16.90;96.70;;;;;;5060059;28;20267;-75
2023/03/08 12:02:46;;;;;;;4.20;1.45;;;16.80;96.70;;;;;;5055943;28;20051;-74
2023/03/08 12:05:22;;;;;;;6.20;1.58;;;16.60;96.70;;;;;;5066994;28;20049;-74
2023/03/08 12:07:54;;;;;;;9.45;1.88;;;16.60;96.70;;;;;;5042062;28;20405;-75
2023/03/08 12:10:27;;;;;;;6.10;1.60;;;16.70;96.70;;;;;;5066736;28;20044;-74
2023/03/08 12:13:00;;;;;;;5.85;1.80;;;17.00;96.70;;;;;;5062838;28;20048;-76
2023/03/08 12:15:34;;;;;;;5.00;1.63;;;17.00;96.70;;;;;;5064155;28;20078;-75
2023/03/08 12:18:11;;;;;;;9.93;2.00;;;17.00;96.70;;;;;;5059507;28;20079;-74
2023/03/08 12:20:42;;;;;;;9.20;1.77;;;16.90;96.70;;;;;;5073925;28;20075;-74
2023/03/08 12:23:23;;;;;;;8.50;2.22;;;16.70;96.70;;;;;;5068111;28;20040;-73
2023/03/08 12:25:59;;;;;;;8.93;2.20;;;16.50;96.70;;;;;;5066621;28;20052;-75
2023/03/08 12:28:33;;;;;;;7.32;2.25;;;16.40;96.70;;;;;;5065541;28;20048;-75
2023/03/08 12:31:19;;;;;;;9.43;2.40;;;16.30;96.70;;;;;;5071587;28;20143;-75
2023/03/08 12:33:58;;;;;;;6.20;1.83;;;16.10;96.70;;;;;;5046211;28;20217;-74
2023/03/08 12:36:42;;;;;;;7.93;2.03;;;16.00;96.70;;;;;;5058205;28;20071;-76
2023/03/08 12:39:25;;;;;;;10.48;2.28;;;15.90;96.70;;;;;;5063702;28;20060;-74
2023/03/08 12:41:58;;;;;;;11.07;2.90;;;15.90;96.70;;;;;;5072241;28;20599;-75
2023/03/08 12:44:28;;;;;;;10.40;2.30;;;15.90;96.70;;;;;;5076477;28;20048;-75
2023/03/08 12:47:00;;;;;;;11.63;2.40;;;15.70;96.70;;;;;;5067327;28;20055;-75
2023/03/08 12:49:36;;;;;;;10.70;2.33;;;15.70;96.70;;;;;;5067395;28;20044;-75
2023/03/08 12:52:06;;;;;;;9.23;2.50;;;15.80;96.70;;;;;;5083615;28;20113;-75
2023/03/08 12:54:35;;;;;;;6.45;2.25;;;15.70;96.70;;;;;;5074183;28;20616;-76
2023/03/08 12:57:17;;;;;;;10.25;2.38;;;15.70;96.70;;;;;;5078048;28;20052;-76
2023/03/08 12:59:46;;;;;;;10.07;2.75;;;15.50;96.70;;;;;;5070537;28;20090;-75
2023/03/08 13:02:29;;;;;;;9.60;2.30;;;15.40;96.70;;;;;;5089221;28;20525;-75
2023/03/08 13:05:28;;;;;;;12.43;2.50;;;15.30;96.70;;;;;;5082709;28;20052;-75
2023/03/08 13:08:26;;;;;;;12.75;2.70;;;15.20;96.70;;;;;;5075272;28;20056;-76